sensor_id;sensor_type;location;lat;lon;timestamp;P1;durP1;ratioP1;P2;durP2;ratioP2
46551;SDS011;32278;51.810;4.712;2023-02-21T00:01:09;60.20;;;20.75;;
46551;SDS011;32278;51.810;4.712;2023-02-21T00:03:57;61.08;;;21.25;;
46551;SDS011;32278;51.810;4.712;2023-02-21T00:06:43;56.55;;;19.10;;
46551;SDS011;32278;51.810;4.712;2023-02-21T00:09:27;52.97;;;18.25;;
46551;SDS011;32278;51.810;4.712;2023-02-21T00:12:11;50.65;;;16.92;;
46551;SDS011;32278;51.810;4.712;2023-02-21T00:14:55;46.95;;;16.60;;
46551;SDS011;32278;51.810;4.712;2023-02-21T00:17:39;62.55;;;17.70;;
46551;SDS011;32278;51.810;4.712;2023-02-21T00:20:23;49.88;;;17.88;;
46551;SDS011;32278;51.810;4.712;2023-02-21T00:23:08;53.45;;;18.02;;
46551;SDS011;32278;51.810;4.712;2023-02-21T00:25:53;58.83;;;18.10;;
46551;SDS011;32278;51.810;4.712;2023-02-21T00:28:37;62.95;;;19.30;;
46551;SDS011;32278;51.810;4.712;2023-02-21T00:31:21;68.03;;;20.35;;
46551;SDS011;32278;51.810;4.712;2023-02-21T00:34:05;58.08;;;18.02;;
46551;SDS011;32278;51.810;4.712;2023-02-21T00:36:51;60.08;;;17.95;;
46551;SDS011;32278;51.810;4.712;2023-02-21T00:39:35;65.30;;;19.58;;
46551;SDS011;32278;51.810;4.712;2023-02-21T00:42:19;67.30;;;20.83;;
46551;SDS011;32278;51.810;4.712;2023-02-21T00:45:04;66.22;;;20.67;;
46551;SDS011;32278;51.810;4.712;2023-02-21T00:47:48;57.85;;;20.00;;
46551;SDS011;32278;51.810;4.712;2023-02-21T00:50:32;65.22;;;19.20;;
46551;SDS011;32278;51.810;4.712;2023-02-21T00:53:16;58.35;;;18.25;;
46551;SDS011;32278;51.810;4.712;2023-02-21T00:56:00;49.40;;;15.45;;
46551;SDS011;32278;51.810;4.712;2023-02-21T00:58:44;59.00;;;17.38;;
46551;SDS011;32278;51.810;4.712;2023-02-21T01:01:28;47.05;;;15.30;;
46551;SDS011;32278;51.810;4.712;2023-02-21T01:04:13;41.25;;;13.60;;
46551;SDS011;32278;51.810;4.712;2023-02-21T01:06:57;44.15;;;13.77;;
46551;SDS011;32278;51.810;4.712;2023-02-21T01:09:41;36.28;;;12.75;;
46551;SDS011;32278;51.810;4.712;2023-02-21T01:12:25;46.00;;;14.48;;
46551;SDS011;32278;51.810;4.712;2023-02-21T01:15:09;45.65;;;15.07;;
46551;SDS011;32278;51.810;4.712;2023-02-21T01:17:53;39.10;;;13.93;;
46551;SDS011;32278;51.810;4.712;2023-02-21T01:20:37;53.60;;;14.77;;
46551;SDS011;32278;51.810;4.712;2023-02-21T01:23:22;42.53;;;14.63;;
46551;SDS011;32278;51.810;4.712;2023-02-21T01:26:07;48.42;;;14.82;;
46551;SDS011;32278;51.810;4.712;2023-02-21T01:28:52;52.38;;;14.57;;
46551;SDS011;32278;51.810;4.712;2023-02-21T01:31:36;42.13;;;16.80;;
46551;SDS011;32278;51.810;4.712;2023-02-21T01:34:20;42.40;;;15.60;;
46551;SDS011;32278;51.810;4.712;2023-02-21T01:37:04;46.83;;;14.98;;
46551;SDS011;32278;51.810;4.712;2023-02-21T01:39:49;43.88;;;16.25;;
46551;SDS011;32278;51.810;4.712;2023-02-21T01:42:33;44.28;;;15.98;;
46551;SDS011;32278;51.810;4.712;2023-02-21T01:48:07;46.25;;;17.25;;
46551;SDS011;32278;51.810;4.712;2023-02-21T01:50:58;53.13;;;17.33;;
46551;SDS011;32278;51.810;4.712;2023-02-21T01:53:44;65.93;;;19.20;;
46551;SDS011;32278;51.810;4.712;2023-02-21T01:56:29;56.83;;;17.83;;
46551;SDS011;32278;51.810;4.712;2023-02-21T01:59:13;69.10;;;20.42;;
46551;SDS011;32278;51.810;4.712;2023-02-21T02:02:04;61.53;;;19.33;;
46551;SDS011;32278;51.810;4.712;2023-02-21T02:04:55;57.35;;;19.05;;
46551;SDS011;32278;51.810;4.712;2023-02-21T02:07:41;60.17;;;21.70;;
46551;SDS011;32278;51.810;4.712;2023-02-21T02:10:25;71.43;;;22.55;;
46551;SDS011;32278;51.810;4.712;2023-02-21T02:16:09;62.00;;;21.50;;
46551;SDS011;32278;51.810;4.712;2023-02-21T02:24:30;67.70;;;22.05;;
46551;SDS011;32278;51.810;4.712;2023-02-21T02:27:00;60.08;;;21.75;;
46551;SDS011;32278;51.810;4.712;2023-02-21T02:29:47;65.45;;;22.35;;
46551;SDS011;32278;51.810;4.712;2023-02-21T02:35:52;78.13;;;23.98;;
46551;SDS011;32278;51.810;4.712;2023-02-21T02:43:51;74.13;;;23.90;;
46551;SDS011;32278;51.810;4.712;2023-02-21T02:46:26;66.05;;;22.95;;
46551;SDS011;32278;51.810;4.712;2023-02-21T02:48:59;56.45;;;20.42;;
46551;SDS011;32278;51.810;4.712;2023-02-21T02:51:43;72.07;;;25.60;;
46551;SDS011;32278;51.810;4.712;2023-02-21T02:54:09;62.30;;;22.65;;
46551;SDS011;32278;51.810;4.712;2023-02-21T02:56:35;60.33;;;21.05;;
46551;SDS011;32278;51.810;4.712;2023-02-21T03:12:32;67.40;;;22.13;;
46551;SDS011;32278;51.810;4.712;2023-02-21T03:17:33;69.60;;;21.35;;
46551;SDS011;32278;51.810;4.712;2023-02-21T03:20:05;70.45;;;22.10;;
46551;SDS011;32278;51.810;4.712;2023-02-21T03:22:33;67.63;;;21.70;;
46551;SDS011;32278;51.810;4.712;2023-02-21T03:24:59;70.40;;;23.30;;
46551;SDS011;32278;51.810;4.712;2023-02-21T03:27:27;86.07;;;25.58;;
46551;SDS011;32278;51.810;4.712;2023-02-21T03:29:55;76.82;;;23.73;;
46551;SDS011;32278;51.810;4.712;2023-02-21T03:32:25;72.85;;;22.90;;
46551;SDS011;32278;51.810;4.712;2023-02-21T03:34:53;68.13;;;22.40;;
46551;SDS011;32278;51.810;4.712;2023-02-21T03:37:33;69.60;;;21.50;;
46551;SDS011;32278;51.810;4.712;2023-02-21T03:40:11;70.70;;;24.08;;
46551;SDS011;32278;51.810;4.712;2023-02-21T03:42:42;84.03;;;24.85;;
46551;SDS011;32278;51.810;4.712;2023-02-21T03:45:08;75.68;;;22.33;;
46551;SDS011;32278;51.810;4.712;2023-02-21T03:47:34;69.20;;;21.17;;
46551;SDS011;32278;51.810;4.712;2023-02-21T03:50:00;72.50;;;23.77;;
46551;SDS011;32278;51.810;4.712;2023-02-21T03:52:25;70.32;;;22.83;;
46551;SDS011;32278;51.810;4.712;2023-02-21T03:54:51;73.65;;;22.38;;
46551;SDS011;32278;51.810;4.712;2023-02-21T03:57:16;67.22;;;23.50;;
46551;SDS011;32278;51.810;4.712;2023-02-21T03:59:42;73.47;;;23.67;;
46551;SDS011;32278;51.810;4.712;2023-02-21T04:02:08;73.35;;;24.98;;
46551;SDS011;32278;51.810;4.712;2023-02-21T04:04:33;80.60;;;23.13;;
46551;SDS011;32278;51.810;4.712;2023-02-21T04:06:59;66.93;;;24.85;;
46551;SDS011;32278;51.810;4.712;2023-02-21T04:09:24;63.30;;;22.80;;
46551;SDS011;32278;51.810;4.712;2023-02-21T04:11:51;62.53;;;20.88;;
46551;SDS011;32278;51.810;4.712;2023-02-21T04:14:17;71.13;;;24.65;;
46551;SDS011;32278;51.810;4.712;2023-02-21T04:16:42;82.85;;;24.23;;
46551;SDS011;32278;51.810;4.712;2023-02-21T04:19:08;69.75;;;24.05;;
46551;SDS011;32278;51.810;4.712;2023-02-21T04:21:33;89.90;;;25.48;;
46551;SDS011;32278;51.810;4.712;2023-02-21T04:23:59;71.65;;;22.52;;
46551;SDS011;32278;51.810;4.712;2023-02-21T04:26:24;81.40;;;24.30;;
46551;SDS011;32278;51.810;4.712;2023-02-21T04:28:51;76.20;;;23.92;;
46551;SDS011;32278;51.810;4.712;2023-02-21T04:31:16;73.85;;;23.10;;
46551;SDS011;32278;51.810;4.712;2023-02-21T04:33:42;82.05;;;25.17;;
46551;SDS011;32278;51.810;4.712;2023-02-21T04:36:08;74.97;;;23.20;;
46551;SDS011;32278;51.810;4.712;2023-02-21T04:38:34;66.60;;;22.88;;
46551;SDS011;32278;51.810;4.712;2023-02-21T04:41:01;74.68;;;23.15;;
46551;SDS011;32278;51.810;4.712;2023-02-21T04:43:28;89.28;;;26.65;;
46551;SDS011;32278;51.810;4.712;2023-02-21T04:45:53;69.68;;;23.98;;
46551;SDS011;32278;51.810;4.712;2023-02-21T04:48:19;73.20;;;23.92;;
46551;SDS011;32278;51.810;4.712;2023-02-21T04:50:45;72.50;;;24.23;;
46551;SDS011;32278;51.810;4.712;2023-02-21T04:53:10;75.32;;;24.45;;
46551;SDS011;32278;51.810;4.712;2023-02-21T04:55:36;72.65;;;22.88;;
46551;SDS011;32278;51.810;4.712;2023-02-21T04:58:02;73.88;;;25.02;;
46551;SDS011;32278;51.810;4.712;2023-02-21T05:00:28;82.45;;;26.05;;
46551;SDS011;32278;51.810;4.712;2023-02-21T05:02:53;82.25;;;27.63;;
46551;SDS011;32278;51.810;4.712;2023-02-21T05:05:19;84.28;;;26.73;;
46551;SDS011;32278;51.810;4.712;2023-02-21T05:07:44;89.80;;;25.88;;
46551;SDS011;32278;51.810;4.712;2023-02-21T05:10:10;84.28;;;26.50;;
46551;SDS011;32278;51.810;4.712;2023-02-21T05:12:37;83.28;;;24.67;;
46551;SDS011;32278;51.810;4.712;2023-02-21T05:15:05;95.57;;;25.63;;
46551;SDS011;32278;51.810;4.712;2023-02-21T05:17:31;86.30;;;27.67;;
46551;SDS011;32278;51.810;4.712;2023-02-21T05:19:57;80.63;;;25.50;;
46551;SDS011;32278;51.810;4.712;2023-02-21T05:22:23;82.45;;;27.00;;
46551;SDS011;32278;51.810;4.712;2023-02-21T05:24:49;92.75;;;28.45;;
46551;SDS011;32278;51.810;4.712;2023-02-21T05:27:15;67.78;;;22.65;;
46551;SDS011;32278;51.810;4.712;2023-02-21T05:29:49;73.70;;;24.85;;
46551;SDS011;32278;51.810;4.712;2023-02-21T05:32:17;76.18;;;25.23;;
46551;SDS011;32278;51.810;4.712;2023-02-21T05:34:44;79.47;;;27.20;;
46551;SDS011;32278;51.810;4.712;2023-02-21T05:37:14;97.13;;;28.15;;
46551;SDS011;32278;51.810;4.712;2023-02-21T05:39:41;83.68;;;26.00;;
46551;SDS011;32278;51.810;4.712;2023-02-21T05:42:06;94.80;;;27.27;;
46551;SDS011;32278;51.810;4.712;2023-02-21T05:44:32;101.75;;;28.60;;
46551;SDS011;32278;51.810;4.712;2023-02-21T05:46:58;90.80;;;26.52;;
46551;SDS011;32278;51.810;4.712;2023-02-21T05:49:26;87.82;;;28.77;;
46551;SDS011;32278;51.810;4.712;2023-02-21T05:51:51;81.95;;;26.75;;
46551;SDS011;32278;51.810;4.712;2023-02-21T05:54:19;100.82;;;29.63;;
46551;SDS011;32278;51.810;4.712;2023-02-21T05:56:47;104.35;;;29.65;;
46551;SDS011;32278;51.810;4.712;2023-02-21T05:59:14;98.90;;;28.98;;
46551;SDS011;32278;51.810;4.712;2023-02-21T06:01:43;106.53;;;31.60;;
46551;SDS011;32278;51.810;4.712;2023-02-21T06:04:09;106.57;;;29.77;;
46551;SDS011;32278;51.810;4.712;2023-02-21T06:06:35;107.75;;;30.77;;
46551;SDS011;32278;51.810;4.712;2023-02-21T06:09:02;99.72;;;28.77;;
46551;SDS011;32278;51.810;4.712;2023-02-21T06:11:29;83.15;;;25.58;;
46551;SDS011;32278;51.810;4.712;2023-02-21T06:13:57;113.60;;;29.67;;
46551;SDS011;32278;51.810;4.712;2023-02-21T06:16:25;130.45;;;35.17;;
46551;SDS011;32278;51.810;4.712;2023-02-21T06:18:51;120.28;;;30.15;;
46551;SDS011;32278;51.810;4.712;2023-02-21T06:21:18;99.88;;;26.25;;
46551;SDS011;32278;51.810;4.712;2023-02-21T06:23:44;104.25;;;29.13;;
46551;SDS011;32278;51.810;4.712;2023-02-21T06:26:10;104.00;;;28.05;;
46551;SDS011;32278;51.810;4.712;2023-02-21T06:28:36;115.60;;;31.27;;
46551;SDS011;32278;51.810;4.712;2023-02-21T06:31:02;117.00;;;31.42;;
46551;SDS011;32278;51.810;4.712;2023-02-21T06:33:28;115.45;;;32.40;;
46551;SDS011;32278;51.810;4.712;2023-02-21T06:35:54;128.32;;;32.00;;
46551;SDS011;32278;51.810;4.712;2023-02-21T06:38:19;114.50;;;30.00;;
46551;SDS011;32278;51.810;4.712;2023-02-21T06:40:45;125.93;;;30.40;;
46551;SDS011;32278;51.810;4.712;2023-02-21T06:43:11;92.00;;;25.13;;
46551;SDS011;32278;51.810;4.712;2023-02-21T06:45:36;117.55;;;30.63;;
46551;SDS011;32278;51.810;4.712;2023-02-21T06:48:02;108.28;;;30.52;;
46551;SDS011;32278;51.810;4.712;2023-02-21T06:50:28;104.00;;;29.83;;
46551;SDS011;32278;51.810;4.712;2023-02-21T06:52:53;116.53;;;30.40;;
46551;SDS011;32278;51.810;4.712;2023-02-21T06:55:20;109.85;;;31.35;;
46551;SDS011;32278;51.810;4.712;2023-02-21T06:57:46;81.30;;;24.35;;
46551;SDS011;32278;51.810;4.712;2023-02-21T07:00:12;102.75;;;29.90;;
46551;SDS011;32278;51.810;4.712;2023-02-21T07:02:38;103.82;;;28.75;;
46551;SDS011;32278;51.810;4.712;2023-02-21T07:05:04;102.32;;;28.27;;
46551;SDS011;32278;51.810;4.712;2023-02-21T07:07:30;109.85;;;30.13;;
46551;SDS011;32278;51.810;4.712;2023-02-21T07:09:56;85.55;;;25.15;;
46551;SDS011;32278;51.810;4.712;2023-02-21T07:12:21;77.68;;;24.20;;
46551;SDS011;32278;51.810;4.712;2023-02-21T07:14:47;100.38;;;28.55;;
46551;SDS011;32278;51.810;4.712;2023-02-21T07:17:12;92.25;;;27.65;;
46551;SDS011;32278;51.810;4.712;2023-02-21T07:19:38;88.28;;;26.92;;
46551;SDS011;32278;51.810;4.712;2023-02-21T07:22:06;91.97;;;25.92;;
46551;SDS011;32278;51.810;4.712;2023-02-21T07:24:32;80.00;;;26.45;;
46551;SDS011;32278;51.810;4.712;2023-02-21T07:26:57;82.40;;;24.60;;
46551;SDS011;32278;51.810;4.712;2023-02-21T07:29:23;85.53;;;25.52;;
46551;SDS011;32278;51.810;4.712;2023-02-21T07:31:49;67.75;;;23.20;;
46551;SDS011;32278;51.810;4.712;2023-02-21T07:34:15;85.63;;;22.65;;
46551;SDS011;32278;51.810;4.712;2023-02-21T07:36:40;96.22;;;26.77;;
46551;SDS011;32278;51.810;4.712;2023-02-21T07:39:06;84.50;;;25.63;;
46551;SDS011;32278;51.810;4.712;2023-02-21T07:41:32;86.60;;;27.02;;
46551;SDS011;32278;51.810;4.712;2023-02-21T07:43:57;79.43;;;25.42;;
46551;SDS011;32278;51.810;4.712;2023-02-21T07:46:25;96.35;;;28.23;;
46551;SDS011;32278;51.810;4.712;2023-02-21T07:48:52;103.75;;;28.75;;
46551;SDS011;32278;51.810;4.712;2023-02-21T07:51:17;99.28;;;29.48;;
46551;SDS011;32278;51.810;4.712;2023-02-21T07:53:43;88.75;;;26.33;;
46551;SDS011;32278;51.810;4.712;2023-02-21T07:56:09;81.05;;;25.13;;
46551;SDS011;32278;51.810;4.712;2023-02-21T07:58:35;121.68;;;30.75;;
46551;SDS011;32278;51.810;4.712;2023-02-21T08:01:04;100.03;;;31.20;;
46551;SDS011;32278;51.810;4.712;2023-02-21T08:03:30;111.07;;;29.42;;
46551;SDS011;32278;51.810;4.712;2023-02-21T08:05:59;139.05;;;31.85;;
46551;SDS011;32278;51.810;4.712;2023-02-21T08:08:25;103.30;;;27.80;;
46551;SDS011;32278;51.810;4.712;2023-02-21T08:10:51;103.13;;;31.80;;
46551;SDS011;32278;51.810;4.712;2023-02-21T08:13:16;120.82;;;33.20;;
46551;SDS011;32278;51.810;4.712;2023-02-21T08:15:42;113.15;;;29.90;;
46551;SDS011;32278;51.810;4.712;2023-02-21T08:18:17;154.93;;;36.65;;
46551;SDS011;32278;51.810;4.712;2023-02-21T08:20:47;103.30;;;30.10;;
46551;SDS011;32278;51.810;4.712;2023-02-21T08:23:17;147.95;;;35.33;;
46551;SDS011;32278;51.810;4.712;2023-02-21T08:25:44;143.27;;;37.38;;
46551;SDS011;32278;51.810;4.712;2023-02-21T08:28:10;135.93;;;36.30;;
46551;SDS011;32278;51.810;4.712;2023-02-21T08:30:36;182.23;;;40.45;;
46551;SDS011;32278;51.810;4.712;2023-02-21T08:33:01;139.35;;;35.78;;
46551;SDS011;32278;51.810;4.712;2023-02-21T08:35:27;152.52;;;37.03;;
46551;SDS011;32278;51.810;4.712;2023-02-21T08:37:53;135.65;;;38.83;;
46551;SDS011;32278;51.810;4.712;2023-02-21T08:40:26;156.00;;;37.20;;
46551;SDS011;32278;51.810;4.712;2023-02-21T08:42:56;147.18;;;36.92;;
46551;SDS011;32278;51.810;4.712;2023-02-21T08:45:23;154.82;;;36.55;;
46551;SDS011;32278;51.810;4.712;2023-02-21T08:47:50;159.43;;;38.92;;
46551;SDS011;32278;51.810;4.712;2023-02-21T08:50:16;157.75;;;40.17;;
46551;SDS011;32278;51.810;4.712;2023-02-21T08:52:44;122.85;;;32.97;;
46551;SDS011;32278;51.810;4.712;2023-02-21T08:55:10;182.05;;;41.83;;
46551;SDS011;32278;51.810;4.712;2023-02-21T08:57:35;164.07;;;39.30;;
46551;SDS011;32278;51.810;4.712;2023-02-21T09:00:01;164.82;;;38.72;;
46551;SDS011;32278;51.810;4.712;2023-02-21T09:02:30;165.10;;;38.80;;
46551;SDS011;32278;51.810;4.712;2023-02-21T09:04:56;139.75;;;36.42;;
46551;SDS011;32278;51.810;4.712;2023-02-21T09:07:23;163.13;;;40.45;;
46551;SDS011;32278;51.810;4.712;2023-02-21T09:09:49;159.88;;;36.13;;
46551;SDS011;32278;51.810;4.712;2023-02-21T09:12:15;138.38;;;35.65;;
46551;SDS011;32278;51.810;4.712;2023-02-21T09:14:41;166.68;;;35.65;;
46551;SDS011;32278;51.810;4.712;2023-02-21T09:17:08;138.05;;;36.60;;
46551;SDS011;32278;51.810;4.712;2023-02-21T09:19:36;128.80;;;31.95;;
46551;SDS011;32278;51.810;4.712;2023-02-21T09:22:02;124.25;;;29.35;;
46551;SDS011;32278;51.810;4.712;2023-02-21T09:24:28;100.45;;;27.95;;
46551;SDS011;32278;51.810;4.712;2023-02-21T09:26:54;104.90;;;26.85;;
46551;SDS011;32278;51.810;4.712;2023-02-21T09:29:26;116.32;;;30.40;;
46551;SDS011;32278;51.810;4.712;2023-02-21T09:31:53;121.80;;;30.90;;
46551;SDS011;32278;51.810;4.712;2023-02-21T09:34:19;102.15;;;25.13;;
46551;SDS011;32278;51.810;4.712;2023-02-21T09:36:44;110.43;;;26.73;;
46551;SDS011;32278;51.810;4.712;2023-02-21T09:39:11;121.22;;;29.85;;
46551;SDS011;32278;51.810;4.712;2023-02-21T09:41:37;94.53;;;23.45;;
46551;SDS011;32278;51.810;4.712;2023-02-21T09:44:04;93.05;;;25.30;;
46551;SDS011;32278;51.810;4.712;2023-02-21T09:46:41;100.28;;;26.38;;
46551;SDS011;32278;51.810;4.712;2023-02-21T09:49:12;93.10;;;26.35;;
46551;SDS011;32278;51.810;4.712;2023-02-21T09:51:48;83.68;;;21.52;;
46551;SDS011;32278;51.810;4.712;2023-02-21T09:54:22;76.47;;;19.55;;
46551;SDS011;32278;51.810;4.712;2023-02-21T09:56:48;81.57;;;21.77;;
46551;SDS011;32278;51.810;4.712;2023-02-21T09:59:14;67.80;;;21.58;;
46551;SDS011;32278;51.810;4.712;2023-02-21T10:06:59;76.90;;;21.30;;
46551;SDS011;32278;51.810;4.712;2023-02-21T10:12:54;65.00;;;18.07;;
46551;SDS011;32278;51.810;4.712;2023-02-21T10:19:19;53.58;;;18.40;;
46551;SDS011;32278;51.810;4.712;2023-02-21T10:21:55;56.45;;;18.63;;
46551;SDS011;32278;51.810;4.712;2023-02-21T10:24:24;51.55;;;16.70;;
46551;SDS011;32278;51.810;4.712;2023-02-21T10:27:01;51.92;;;14.90;;
46551;SDS011;32278;51.810;4.712;2023-02-21T10:29:40;48.72;;;14.15;;
46551;SDS011;32278;51.810;4.712;2023-02-21T10:32:11;44.42;;;13.75;;
46551;SDS011;32278;51.810;4.712;2023-02-21T10:34:39;38.05;;;13.98;;
46551;SDS011;32278;51.810;4.712;2023-02-21T10:37:20;39.55;;;13.68;;
46551;SDS011;32278;51.810;4.712;2023-02-21T10:39:58;32.35;;;12.27;;
46551;SDS011;32278;51.810;4.712;2023-02-21T10:42:30;37.67;;;12.93;;
46551;SDS011;32278;51.810;4.712;2023-02-21T10:45:02;39.63;;;12.85;;
46551;SDS011;32278;51.810;4.712;2023-02-21T10:50:12;35.85;;;12.27;;
46551;SDS011;32278;51.810;4.712;2023-02-21T10:52:45;41.88;;;12.73;;
46551;SDS011;32278;51.810;4.712;2023-02-21T10:55:17;37.97;;;12.68;;
46551;SDS011;32278;51.810;4.712;2023-02-21T10:57:43;36.85;;;12.43;;
46551;SDS011;32278;51.810;4.712;2023-02-21T11:00:20;32.05;;;11.23;;
46551;SDS011;32278;51.810;4.712;2023-02-21T11:03:03;34.03;;;11.77;;
46551;SDS011;32278;51.810;4.712;2023-02-21T11:05:39;28.80;;;9.52;;
46551;SDS011;32278;51.810;4.712;2023-02-21T11:08:06;31.77;;;11.23;;
46551;SDS011;32278;51.810;4.712;2023-02-21T11:10:34;26.83;;;10.55;;
46551;SDS011;32278;51.810;4.712;2023-02-21T11:13:14;29.20;;;10.82;;
46551;SDS011;32278;51.810;4.712;2023-02-21T11:15:42;51.33;;;10.60;;
46551;SDS011;32278;51.810;4.712;2023-02-21T11:18:21;35.22;;;11.50;;
46551;SDS011;32278;51.810;4.712;2023-02-21T11:20:48;33.97;;;11.90;;
46551;SDS011;32278;51.810;4.712;2023-02-21T11:25:46;27.35;;;10.65;;
46551;SDS011;32278;51.810;4.712;2023-02-21T11:33:25;38.15;;;11.35;;
46551;SDS011;32278;51.810;4.712;2023-02-21T11:35:52;29.20;;;10.55;;
46551;SDS011;32278;51.810;4.712;2023-02-21T11:38:34;29.42;;;10.98;;
46551;SDS011;32278;51.810;4.712;2023-02-21T11:43:52;23.40;;;9.65;;
46551;SDS011;32278;51.810;4.712;2023-02-21T11:46:27;28.33;;;9.82;;
46551;SDS011;32278;51.810;4.712;2023-02-21T11:51:38;28.40;;;9.35;;
46551;SDS011;32278;51.810;4.712;2023-02-21T11:54:09;21.05;;;9.45;;
46551;SDS011;32278;51.810;4.712;2023-02-21T11:56:41;24.70;;;10.05;;
46551;SDS011;32278;51.810;4.712;2023-02-21T12:02:17;25.02;;;9.48;;
46551;SDS011;32278;51.810;4.712;2023-02-21T12:07:46;22.15;;;8.63;;
46551;SDS011;32278;51.810;4.712;2023-02-21T12:10:40;22.60;;;8.80;;
46551;SDS011;32278;51.810;4.712;2023-02-21T12:16:07;20.10;;;8.23;;
46551;SDS011;32278;51.810;4.712;2023-02-21T12:21:57;22.38;;;7.78;;
46551;SDS011;32278;51.810;4.712;2023-02-21T12:35:27;18.65;;;8.05;;
46551;SDS011;32278;51.810;4.712;2023-02-21T12:51:00;17.15;;;7.43;;
46551;SDS011;32278;51.810;4.712;2023-02-21T12:53:41;16.42;;;7.28;;
46551;SDS011;32278;51.810;4.712;2023-02-21T12:56:23;18.50;;;7.47;;
46551;SDS011;32278;51.810;4.712;2023-02-21T12:59:07;16.60;;;6.20;;
46551;SDS011;32278;51.810;4.712;2023-02-21T13:01:42;17.48;;;6.65;;
46551;SDS011;32278;51.810;4.712;2023-02-21T13:04:17;15.85;;;6.25;;
46551;SDS011;32278;51.810;4.712;2023-02-21T13:07:20;15.93;;;7.65;;
46551;SDS011;32278;51.810;4.712;2023-02-21T13:12:27;19.42;;;7.55;;
46551;SDS011;32278;51.810;4.712;2023-02-21T13:15:12;18.75;;;7.28;;
46551;SDS011;32278;51.810;4.712;2023-02-21T13:17:40;19.60;;;7.10;;
46551;SDS011;32278;51.810;4.712;2023-02-21T13:20:09;17.73;;;7.05;;
46551;SDS011;32278;51.810;4.712;2023-02-21T13:22:41;17.73;;;7.78;;
46551;SDS011;32278;51.810;4.712;2023-02-21T13:28:18;13.43;;;6.68;;
46551;SDS011;32278;51.810;4.712;2023-02-21T13:30:59;13.80;;;6.15;;
46551;SDS011;32278;51.810;4.712;2023-02-21T13:33:34;14.95;;;5.63;;
46551;SDS011;32278;51.810;4.712;2023-02-21T13:36:25;13.65;;;5.72;;
46551;SDS011;32278;51.810;4.712;2023-02-21T13:41:25;16.38;;;6.60;;
46551;SDS011;32278;51.810;4.712;2023-02-21T13:43:52;20.70;;;9.52;;
46551;SDS011;32278;51.810;4.712;2023-02-21T13:57:41;22.98;;;9.27;;
46551;SDS011;32278;51.810;4.712;2023-02-21T14:15:58;28.02;;;8.88;;
46551;SDS011;32278;51.810;4.712;2023-02-21T14:26:50;28.45;;;9.32;;
46551;SDS011;32278;51.810;4.712;2023-02-21T14:31:56;23.67;;;8.77;;
46551;SDS011;32278;51.810;4.712;2023-02-21T14:34:35;25.90;;;8.82;;
46551;SDS011;32278;51.810;4.712;2023-02-21T14:37:12;23.95;;;8.63;;
46551;SDS011;32278;51.810;4.712;2023-02-21T14:39:59;27.27;;;9.60;;
46551;SDS011;32278;51.810;4.712;2023-02-21T14:50:09;36.20;;;11.13;;
46551;SDS011;32278;51.810;4.712;2023-02-21T14:58:05;33.90;;;10.35;;
46551;SDS011;32278;51.810;4.712;2023-02-21T15:00:52;33.97;;;10.98;;
46551;SDS011;32278;51.810;4.712;2023-02-21T15:03:43;29.88;;;10.10;;
46551;SDS011;32278;51.810;4.712;2023-02-21T15:06:13;32.55;;;9.93;;
46551;SDS011;32278;51.810;4.712;2023-02-21T15:08:49;28.48;;;8.85;;
46551;SDS011;32278;51.810;4.712;2023-02-21T15:11:30;32.50;;;10.00;;
46551;SDS011;32278;51.810;4.712;2023-02-21T15:14:15;27.52;;;9.15;;
46551;SDS011;32278;51.810;4.712;2023-02-21T15:16:47;20.60;;;8.30;;
46551;SDS011;32278;51.810;4.712;2023-02-21T15:19:26;22.13;;;8.05;;
46551;SDS011;32278;51.810;4.712;2023-02-21T15:27:31;23.38;;;9.25;;
46551;SDS011;32278;51.810;4.712;2023-02-21T15:32:28;21.75;;;8.10;;
46551;SDS011;32278;51.810;4.712;2023-02-21T15:34:54;19.48;;;8.02;;
46551;SDS011;32278;51.810;4.712;2023-02-21T15:37:23;19.27;;;7.40;;
46551;SDS011;32278;51.810;4.712;2023-02-21T15:40:13;17.42;;;8.55;;
46551;SDS011;32278;51.810;4.712;2023-02-21T15:42:42;16.20;;;6.32;;
46551;SDS011;32278;51.810;4.712;2023-02-21T15:45:15;15.98;;;6.55;;
46551;SDS011;32278;51.810;4.712;2023-02-21T15:47:44;13.70;;;6.00;;
46551;SDS011;32278;51.810;4.712;2023-02-21T15:52:48;20.40;;;7.55;;
46551;SDS011;32278;51.810;4.712;2023-02-21T15:57:43;14.15;;;6.25;;
46551;SDS011;32278;51.810;4.712;2023-02-21T16:02:43;19.33;;;8.82;;
46551;SDS011;32278;51.810;4.712;2023-02-21T16:05:22;27.08;;;10.35;;
46551;SDS011;32278;51.810;4.712;2023-02-21T16:07:52;25.38;;;9.80;;
46551;SDS011;32278;51.810;4.712;2023-02-21T16:10:19;25.13;;;10.00;;
46551;SDS011;32278;51.810;4.712;2023-02-21T16:12:52;28.98;;;10.60;;
46551;SDS011;32278;51.810;4.712;2023-02-21T16:15:25;35.92;;;13.05;;
46551;SDS011;32278;51.810;4.712;2023-02-21T16:17:54;33.25;;;10.88;;
46551;SDS011;32278;51.810;4.712;2023-02-21T16:28:40;40.38;;;13.80;;
46551;SDS011;32278;51.810;4.712;2023-02-21T16:31:08;37.05;;;13.35;;
46551;SDS011;32278;51.810;4.712;2023-02-21T16:33:39;30.45;;;12.00;;
46551;SDS011;32278;51.810;4.712;2023-02-21T16:36:06;33.90;;;12.15;;
46551;SDS011;32278;51.810;4.712;2023-02-21T16:38:33;37.30;;;12.73;;
46551;SDS011;32278;51.810;4.712;2023-02-21T16:40:59;38.30;;;11.55;;
46551;SDS011;32278;51.810;4.712;2023-02-21T16:43:27;40.15;;;13.55;;
46551;SDS011;32278;51.810;4.712;2023-02-21T16:45:56;34.92;;;12.45;;
46551;SDS011;32278;51.810;4.712;2023-02-21T16:48:25;42.65;;;14.48;;
46551;SDS011;32278;51.810;4.712;2023-02-21T16:50:56;45.03;;;16.30;;
46551;SDS011;32278;51.810;4.712;2023-02-21T16:53:27;49.30;;;17.75;;
46551;SDS011;32278;51.810;4.712;2023-02-21T16:55:53;51.95;;;17.55;;
46551;SDS011;32278;51.810;4.712;2023-02-21T16:58:22;45.97;;;15.02;;
46551;SDS011;32278;51.810;4.712;2023-02-21T17:00:57;42.90;;;15.55;;
46551;SDS011;32278;51.810;4.712;2023-02-21T17:03:26;42.70;;;16.15;;
46551;SDS011;32278;51.810;4.712;2023-02-21T17:05:55;55.80;;;16.73;;
46551;SDS011;32278;51.810;4.712;2023-02-21T17:08:22;47.88;;;16.73;;
46551;SDS011;32278;51.810;4.712;2023-02-21T17:10:49;49.72;;;16.45;;
46551;SDS011;32278;51.810;4.712;2023-02-21T17:13:15;53.00;;;17.23;;
46551;SDS011;32278;51.810;4.712;2023-02-21T17:15:41;50.00;;;18.42;;
46551;SDS011;32278;51.810;4.712;2023-02-21T17:18:06;52.47;;;16.65;;
46551;SDS011;32278;51.810;4.712;2023-02-21T17:20:32;48.75;;;17.02;;
46551;SDS011;32278;51.810;4.712;2023-02-21T17:22:57;41.70;;;14.93;;
46551;SDS011;32278;51.810;4.712;2023-02-21T17:25:24;48.92;;;17.38;;
46551;SDS011;32278;51.810;4.712;2023-02-21T17:27:50;47.00;;;15.70;;
46551;SDS011;32278;51.810;4.712;2023-02-21T17:30:17;49.95;;;15.02;;
46551;SDS011;32278;51.810;4.712;2023-02-21T17:32:44;45.75;;;17.75;;
46551;SDS011;32278;51.810;4.712;2023-02-21T17:35:10;53.75;;;18.38;;
46551;SDS011;32278;51.810;4.712;2023-02-21T17:37:38;57.13;;;18.20;;
46551;SDS011;32278;51.810;4.712;2023-02-21T17:40:05;51.22;;;16.70;;
46551;SDS011;32278;51.810;4.712;2023-02-21T17:42:30;41.50;;;16.65;;
46551;SDS011;32278;51.810;4.712;2023-02-21T17:44:56;49.67;;;16.45;;
46551;SDS011;32278;51.810;4.712;2023-02-21T17:47:22;50.83;;;15.93;;
46551;SDS011;32278;51.810;4.712;2023-02-21T17:49:49;39.80;;;15.02;;